createdAt,value
2023-01-19T00:00:27.746Z,71.97
2023-01-19T00:02:54.920Z,72.06
2023-01-19T00:05:21.579Z,71.64
2023-01-19T00:07:48.022Z,71.76
2023-01-19T00:10:14.436Z,72.11
2023-01-19T00:12:40.860Z,71.56
2023-01-19T00:15:08.032Z,71.88
2023-01-19T00:17:34.438Z,72.15
2023-01-19T00:20:00.850Z,71.61
2023-01-19T00:22:27.261Z,71.73
2023-01-19T00:24:53.683Z,71.39
2023-01-19T00:27:20.100Z,71.02
2023-01-19T00:29:46.577Z,71.24
2023-01-19T00:32:13.002Z,70.57
2023-01-19T00:34:42.596Z,70.69
2023-01-19T00:37:09.618Z,70.47
2023-01-19T00:39:36.030Z,70.88
2023-01-19T00:42:20.869Z,71.30
2023-01-19T00:44:47.284Z,71.90
2023-01-19T00:47:13.678Z,72.07
2023-01-19T00:49:40.137Z,72.44
2023-01-19T00:52:06.557Z,72.84
2023-01-19T00:54:33.000Z,72.73
2023-01-19T00:56:59.445Z,73.47
2023-01-19T00:59:25.868Z,73.22
2023-01-19T01:01:52.415Z,73.31
2023-01-19T01:04:18.973Z,73.66
2023-01-19T01:06:45.428Z,73.92
2023-01-19T01:09:12.053Z,74.24
2023-01-19T01:11:39.940Z,73.80
2023-01-19T01:14:06.439Z,74.28
2023-01-19T01:16:32.968Z,74.09
2023-01-19T01:18:59.523Z,74.06
2023-01-19T01:21:25.973Z,73.97
2023-01-19T01:23:52.385Z,73.57
2023-01-19T01:26:18.794Z,73.13
2023-01-19T01:28:45.229Z,73.29
2023-01-19T01:31:11.684Z,73.14
2023-01-19T01:33:40.653Z,72.92
2023-01-19T01:36:08.928Z,72.96
2023-01-19T01:38:35.361Z,73.07
2023-01-19T01:41:01.789Z,73.22
2023-01-19T01:43:42.695Z,73.66
2023-01-19T01:46:09.330Z,73.27
2023-01-19T01:48:36.509Z,73.83
2023-01-19T01:51:24.749Z,74.02
2023-01-19T01:54:12.083Z,74.29
2023-01-19T01:56:44.656Z,73.88
2023-01-19T01:59:18.040Z,74.13
2023-01-19T02:02:03.124Z,73.66
2023-01-19T02:04:30.123Z,74.29
2023-01-19T02:07:15.133Z,73.66
2023-01-19T02:10:00.142Z,73.93
2023-01-19T02:12:45.918Z,74.19
2023-01-19T02:15:17.725Z,73.57
2023-01-19T02:17:44.327Z,73.63
2023-01-19T02:20:11.255Z,73.78
2023-01-19T02:22:45.584Z,73.67
2023-01-19T02:25:12.115Z,73.69
2023-01-19T02:27:39.496Z,74.01
2023-01-19T02:30:07.057Z,74.45
2023-01-19T02:32:33.595Z,74.44
2023-01-19T02:35:00.063Z,74.37
2023-01-19T02:37:26.647Z,74.94
2023-01-19T02:39:56.024Z,74.90
2023-01-19T02:42:44.452Z,74.90
2023-01-19T02:45:12.674Z,75.03
2023-01-19T02:47:49.782Z,74.90
2023-01-19T02:50:41.790Z,75.21
2023-01-19T02:53:45.973Z,75.11
2023-01-19T02:56:36.294Z,75.53
2023-01-19T02:59:37.132Z,75.23
2023-01-19T03:02:23.991Z,75.12
2023-01-19T03:05:26.119Z,75.45
2023-01-19T03:08:15.704Z,75.73
2023-01-19T03:10:54.489Z,75.81
2023-01-19T03:13:42.707Z,75.80
2023-01-19T03:16:12.181Z,75.44
2023-01-19T03:18:42.701Z,75.85
2023-01-19T03:21:10.323Z,76.03
2023-01-19T03:23:38.816Z,76.00
2023-01-19T03:26:05.984Z,76.08
2023-01-19T03:28:33.573Z,76.10
2023-01-19T03:31:05.433Z,76.27
2023-01-19T03:33:33.025Z,76.48
2023-01-19T03:36:10.489Z,76.22
2023-01-19T03:38:38.071Z,76.19
2023-01-19T03:41:08.223Z,76.22
2023-01-19T03:43:35.607Z,76.24
2023-01-19T03:46:04.104Z,76.44
2023-01-19T03:48:32.371Z,76.10
2023-01-19T03:51:03.620Z,76.58
2023-01-19T03:53:30.022Z,76.15
2023-01-19T03:55:57.003Z,75.95
2023-01-19T03:58:23.487Z,75.57
2023-01-19T04:00:50.012Z,76.06
2023-01-19T04:03:18.150Z,75.77
2023-01-19T04:05:44.608Z,75.99
2023-01-19T04:08:11.884Z,75.72
2023-01-19T04:10:38.848Z,75.58
2023-01-19T04:13:05.635Z,75.92
2023-01-19T04:15:32.624Z,75.54
2023-01-19T04:18:00.588Z,75.66
2023-01-19T04:20:28.172Z,75.67
2023-01-19T04:22:56.068Z,75.20
2023-01-19T04:25:22.478Z,75.40
2023-01-19T04:27:52.275Z,75.41
2023-01-19T04:30:19.050Z,75.25
2023-01-19T04:32:48.484Z,75.29
2023-01-19T04:35:14.980Z,75.30
2023-01-19T04:37:41.429Z,75.50
2023-01-19T04:40:08.524Z,75.52
2023-01-19T04:42:34.964Z,75.18
2023-01-19T04:45:01.358Z,75.19
2023-01-19T04:47:27.775Z,75.83
2023-01-19T04:49:54.223Z,75.60
2023-01-19T04:52:20.644Z,76.02
2023-01-19T04:54:47.665Z,75.56
2023-01-19T04:57:14.107Z,75.77
2023-01-19T04:59:40.556Z,75.92
2023-01-19T05:02:07.182Z,75.81
2023-01-19T05:04:33.721Z,76.15
2023-01-19T05:07:00.114Z,76.33
2023-01-19T05:09:27.277Z,76.41
2023-01-19T05:11:53.764Z,76.15
2023-01-19T05:14:20.259Z,76.56
2023-01-19T05:16:46.677Z,76.61
2023-01-19T05:19:13.133Z,76.70
2023-01-19T05:21:39.562Z,76.94
2023-01-19T05:24:06.302Z,76.62
2023-01-19T05:26:32.815Z,76.79
2023-01-19T05:28:59.221Z,76.49
2023-01-19T05:31:25.782Z,76.24
2023-01-19T05:33:52.249Z,76.43
2023-01-19T05:36:18.651Z,76.75
2023-01-19T05:38:45.075Z,76.34
2023-01-19T05:41:11.468Z,76.63
2023-01-19T05:43:37.909Z,76.52
2023-01-19T05:46:05.347Z,76.10
2023-01-19T05:48:31.791Z,75.89
2023-01-19T05:50:59.163Z,75.98
2023-01-19T05:53:25.848Z,75.91
2023-01-19T05:55:52.323Z,76.46
2023-01-19T05:58:18.726Z,76.35
2023-01-19T06:00:45.215Z,76.22
2023-01-19T06:03:11.854Z,76.51
2023-01-19T06:05:39.439Z,76.26
2023-01-19T06:08:06.030Z,76.50
2023-01-19T06:10:32.448Z,76.59
2023-01-19T06:12:59.236Z,76.38
2023-01-19T06:15:25.871Z,76.51
2023-01-19T06:17:52.274Z,77.02
2023-01-19T06:20:18.674Z,76.95
2023-01-19T06:22:45.069Z,76.63
2023-01-19T06:25:11.934Z,76.80
2023-01-19T06:27:39.787Z,76.34
2023-01-19T06:30:06.782Z,76.00
2023-01-19T06:32:33.205Z,76.37
2023-01-19T06:34:59.610Z,76.09
2023-01-19T06:37:27.256Z,76.29
2023-01-19T06:39:53.668Z,76.11
2023-01-19T06:42:20.096Z,76.36
2023-01-19T06:44:47.994Z,75.96
2023-01-19T06:47:16.375Z,76.12
2023-01-19T06:49:43.271Z,76.10
2023-01-19T06:52:11.440Z,75.51
2023-01-19T06:54:37.840Z,75.60
2023-01-19T06:57:04.459Z,74.95
2023-01-19T06:59:31.704Z,74.86
2023-01-19T07:01:59.012Z,74.86
2023-01-19T07:04:25.597Z,74.83
2023-01-19T07:06:51.995Z,75.06
2023-01-19T07:09:20.335Z,75.22
2023-01-19T07:11:47.268Z,75.21
2023-01-19T07:14:14.011Z,75.19
2023-01-19T07:16:40.534Z,75.50
2023-01-19T07:19:10.605Z,75.52
2023-01-19T07:21:37.133Z,75.75
2023-01-19T07:24:03.629Z,75.82
2023-01-19T07:26:30.826Z,75.70
2023-01-19T07:28:57.240Z,76.20
2023-01-19T07:31:23.747Z,76.37
2023-01-19T07:33:50.183Z,76.02
2023-01-19T07:36:16.579Z,75.96
2023-01-19T07:38:43.015Z,75.76
2023-01-19T07:41:10.224Z,75.75
2023-01-19T07:43:36.670Z,75.79
2023-01-19T07:46:05.514Z,75.88
2023-01-19T07:48:32.016Z,75.93
2023-01-19T07:51:05.359Z,76.17
2023-01-19T07:53:32.287Z,76.11
2023-01-19T07:55:58.752Z,75.87
2023-01-19T07:58:26.397Z,75.77
2023-01-19T08:00:53.323Z,75.98
2023-01-19T08:03:20.226Z,75.61
2023-01-19T08:05:50.307Z,75.51
2023-01-19T08:08:16.740Z,76.03
2023-01-19T08:10:43.135Z,75.84
2023-01-19T08:13:09.579Z,75.82
2023-01-19T08:15:35.984Z,75.62
2023-01-19T08:18:05.644Z,75.41
2023-01-19T08:20:33.169Z,75.38
2023-01-19T08:23:00.253Z,75.78
2023-01-19T08:25:32.399Z,75.46
2023-01-19T08:27:58.934Z,75.63
2023-01-19T08:30:26.784Z,75.48
2023-01-19T08:32:54.591Z,75.18
2023-01-19T08:35:22.062Z,75.41
2023-01-19T08:37:48.470Z,75.61
2023-01-19T08:40:14.975Z,75.22
2023-01-19T08:42:41.396Z,75.42
2023-01-19T08:45:09.237Z,75.21
2023-01-19T08:47:35.708Z,75.06
2023-01-19T08:50:02.251Z,75.26
2023-01-19T08:52:29.334Z,75.33
2023-01-19T08:54:55.844Z,75.29
2023-01-19T08:57:22.259Z,75.42
2023-01-19T08:59:48.707Z,75.37
2023-01-19T09:02:15.236Z,75.16
2023-01-19T09:04:41.692Z,74.72
2023-01-19T09:07:08.107Z,74.94
2023-01-19T09:09:37.756Z,75.04
2023-01-19T09:12:04.350Z,75.09
2023-01-19T09:14:30.808Z,75.14
2023-01-19T09:16:57.326Z,75.27
2023-01-19T09:19:23.740Z,74.69
2023-01-19T09:21:50.922Z,74.75
2023-01-19T09:24:17.306Z,74.56
2023-01-19T09:26:43.754Z,74.39
2023-01-19T09:29:10.181Z,73.97
2023-01-19T09:31:37.336Z,73.80
2023-01-19T09:34:03.755Z,73.46
2023-01-19T09:36:30.267Z,73.57
2023-01-19T09:38:56.692Z,73.26
2023-01-19T09:41:25.006Z,73.56
2023-01-19T09:44:00.134Z,73.52
2023-01-19T09:46:39.621Z,72.95
2023-01-19T09:49:13.315Z,72.68
2023-01-19T09:51:43.674Z,72.59
2023-01-19T09:54:17.260Z,72.56
2023-01-19T09:56:45.223Z,72.80
2023-01-19T09:59:17.422Z,72.13
2023-01-19T10:01:55.954Z,72.37
2023-01-19T10:04:35.208Z,72.63
2023-01-19T10:07:17.058Z,72.28
2023-01-19T10:10:05.799Z,72.35
2023-01-19T10:13:10.614Z,72.20
2023-01-19T10:15:45.998Z,72.01
2023-01-19T10:18:31.419Z,71.72
2023-01-19T10:21:43.323Z,71.72
2023-01-19T10:24:45.693Z,71.75
2023-01-19T10:27:20.782Z,71.46
2023-01-19T10:29:47.285Z,71.53
2023-01-19T10:32:21.195Z,71.20
2023-01-19T10:34:49.164Z,71.58
2023-01-19T10:37:30.597Z,71.15
2023-01-19T10:40:22.993Z,70.97
2023-01-19T10:42:49.492Z,71.10
2023-01-19T10:45:17.411Z,71.05
2023-01-19T10:47:44.618Z,71.15
2023-01-19T10:50:34.761Z,70.56
2023-01-19T10:53:06.070Z,70.78
2023-01-19T10:55:41.416Z,70.55
2023-01-19T10:58:30.464Z,70.89
2023-01-19T11:01:13.433Z,70.47
2023-01-19T11:03:40.020Z,70.37
2023-01-19T11:06:15.570Z,70.42
2023-01-19T11:08:46.683Z,70.40
2023-01-19T11:11:13.263Z,70.08
2023-01-19T11:13:40.530Z,70.43
2023-01-19T11:16:16.114Z,70.45
2023-01-19T11:18:43.180Z,70.47
2023-01-19T11:21:14.625Z,69.75
2023-01-19T11:23:45.361Z,69.59
2023-01-19T11:26:16.753Z,70.03
2023-01-19T11:28:47.800Z,70.04
2023-01-19T11:31:14.346Z,69.98
2023-01-19T11:33:49.664Z,69.65
2023-01-19T11:36:22.147Z,69.98
2023-01-19T11:38:54.953Z,69.85
2023-01-19T11:41:26.729Z,69.99
2023-01-19T11:43:55.164Z,69.62
2023-01-19T11:46:24.252Z,69.22
2023-01-19T11:49:02.108Z,69.60
2023-01-19T11:51:34.648Z,69.68
2023-01-19T11:54:03.072Z,70.03
2023-01-19T11:56:29.546Z,69.56
2023-01-19T11:58:56.349Z,69.50
2023-01-19T12:01:24.815Z,69.99
2023-01-19T12:04:02.701Z,70.07
2023-01-19T12:06:44.751Z,69.98
2023-01-19T12:09:17.316Z,70.13
2023-01-19T12:11:51.036Z,69.87
2023-01-19T12:14:22.885Z,70.03
2023-01-19T12:16:51.328Z,70.34
2023-01-19T12:19:22.418Z,69.80
2023-01-19T12:21:49.253Z,69.58
2023-01-19T12:24:29.733Z,70.08
2023-01-19T12:26:57.619Z,69.46
2023-01-19T12:29:26.376Z,69.39
2023-01-19T12:32:19.092Z,69.79
2023-01-19T12:34:49.974Z,69.68
2023-01-19T12:37:31.999Z,69.94
2023-01-19T12:40:00.859Z,69.47
2023-01-19T12:42:27.397Z,69.42
2023-01-19T12:45:14.007Z,68.99
2023-01-19T12:47:40.554Z,69.13
2023-01-19T12:50:14.095Z,68.90
2023-01-19T12:52:47.829Z,69.01
2023-01-19T12:55:14.187Z,69.70
2023-01-19T12:57:41.375Z,69.43
2023-01-19T13:00:22.938Z,68.88
2023-01-19T13:02:52.484Z,69.63
2023-01-19T13:05:24.979Z,69.66
2023-01-19T13:08:04.834Z,70.02
2023-01-19T13:10:59.321Z,70.44
2023-01-19T13:13:28.680Z,70.63
2023-01-19T13:16:21.149Z,70.74
2023-01-19T13:18:51.580Z,71.51
2023-01-19T13:21:44.683Z,71.76
2023-01-19T13:24:16.477Z,72.31
2023-01-19T13:27:03.516Z,72.83
2023-01-19T13:29:35.419Z,72.83
2023-01-19T13:32:11.741Z,73.00
2023-01-19T13:34:45.615Z,73.45
2023-01-19T13:37:17.771Z,73.45
2023-01-19T13:39:46.959Z,73.96
2023-01-19T13:42:17.223Z,74.54
2023-01-19T13:44:52.307Z,74.44
2023-01-19T13:47:22.503Z,74.56
2023-01-19T13:49:51.537Z,74.41
2023-01-19T13:52:23.185Z,74.60
2023-01-19T13:54:53.580Z,75.08
2023-01-19T13:57:31.571Z,75.22
2023-01-19T14:00:25.483Z,75.18
2023-01-19T14:02:56.192Z,75.40
2023-01-19T14:05:36.808Z,75.36
2023-01-19T14:08:14.938Z,75.82
2023-01-19T14:10:53.549Z,75.91
2023-01-19T14:13:44.731Z,75.89
2023-01-19T14:16:16.059Z,76.07
2023-01-19T14:18:42.842Z,75.29
2023-01-19T14:21:16.237Z,75.68
2023-01-19T14:24:05.577Z,75.79
2023-01-19T14:26:46.970Z,75.11
2023-01-19T14:29:29.307Z,75.83
2023-01-19T14:32:01.686Z,75.63
2023-01-19T14:34:31.932Z,75.28
2023-01-19T14:36:58.897Z,75.11
2023-01-19T14:39:28.087Z,74.88
2023-01-19T14:41:55.876Z,75.20
2023-01-19T14:44:37.660Z,75.37
2023-01-19T14:47:05.788Z,75.32
2023-01-19T14:49:40.513Z,75.24
2023-01-19T14:52:22.618Z,75.23
2023-01-19T14:54:49.519Z,75.60
2023-01-19T14:57:18.615Z,75.16
2023-01-19T14:59:48.450Z,75.26
2023-01-19T15:02:15.325Z,75.51
2023-01-19T15:04:42.065Z,75.48
2023-01-19T15:07:16.730Z,75.69
2023-01-19T15:09:43.205Z,75.26
2023-01-19T15:12:12.023Z,75.14
2023-01-19T15:14:42.027Z,75.47
2023-01-19T15:17:17.507Z,75.13
2023-01-19T15:19:44.990Z,75.35
2023-01-19T15:22:12.953Z,75.43
2023-01-19T15:24:40.930Z,75.31
2023-01-19T15:27:13.439Z,75.39
2023-01-19T15:29:40.399Z,74.93
2023-01-19T15:32:12.147Z,75.16
2023-01-19T15:34:38.610Z,75.08
2023-01-19T15:37:05.031Z,74.86
2023-01-19T15:39:32.145Z,74.97
2023-01-19T15:41:58.613Z,74.60
2023-01-19T15:44:25.081Z,74.80
2023-01-19T15:46:53.853Z,75.09
2023-01-19T15:49:21.051Z,75.54
2023-01-19T15:51:47.487Z,76.02
2023-01-19T15:54:16.763Z,75.51
2023-01-19T15:56:43.212Z,75.99
2023-01-19T15:59:09.641Z,76.22
2023-01-19T16:01:36.273Z,76.14
2023-01-19T16:04:05.429Z,76.55
2023-01-19T16:06:32.504Z,76.24
2023-01-19T16:09:01.256Z,76.25
2023-01-19T16:11:32.862Z,76.51
2023-01-19T16:13:59.580Z,77.18
2023-01-19T16:16:28.141Z,76.81
2023-01-19T16:18:55.157Z,76.78
2023-01-19T16:21:22.176Z,77.03
2023-01-19T16:23:48.706Z,77.48
2023-01-19T16:26:30.766Z,77.65
2023-01-19T16:29:01.767Z,78.15
2023-01-19T16:31:29.095Z,79.12
2023-01-19T16:33:55.777Z,80.07
2023-01-19T16:36:26.374Z,80.15
2023-01-19T16:39:10.921Z,80.86
2023-01-19T16:41:37.543Z,80.79
2023-01-19T16:44:04.334Z,81.71
2023-01-19T16:46:36.314Z,82.12
2023-01-19T16:49:09.710Z,81.74
2023-01-19T16:51:36.486Z,82.49
2023-01-19T16:54:03.372Z,82.71
2023-01-19T16:56:29.984Z,83.16
2023-01-19T16:58:57.598Z,83.29
2023-01-19T17:01:25.771Z,83.72
2023-01-19T17:03:52.693Z,84.09
2023-01-19T17:06:22.875Z,83.87
2023-01-19T17:08:49.828Z,83.96
2023-01-19T17:11:22.691Z,84.21
2023-01-19T17:13:54.616Z,84.05
2023-01-19T17:16:22.225Z,83.96
2023-01-19T17:18:48.829Z,84.00
2023-01-19T17:21:18.013Z,84.61
2023-01-19T17:23:48.762Z,84.42
2023-01-19T17:26:16.404Z,84.37
2023-01-19T17:28:43.540Z,84.73
2023-01-19T17:31:12.861Z,84.86
2023-01-19T17:33:40.007Z,85.24
2023-01-19T17:36:09.164Z,85.64
2023-01-19T17:38:36.471Z,86.00
2023-01-19T17:41:37.392Z,85.79
2023-01-19T17:44:05.399Z,85.91
2023-01-19T17:46:35.776Z,86.02
2023-01-19T17:49:03.711Z,86.13
2023-01-19T17:51:31.149Z,86.29
2023-01-19T17:53:58.557Z,86.60
2023-01-19T17:56:29.459Z,86.28
2023-01-19T17:58:56.993Z,86.75
2023-01-19T18:01:26.431Z,86.87
2023-01-19T18:03:53.172Z,86.92
2023-01-19T18:06:20.114Z,87.25
2023-01-19T18:08:47.567Z,86.94
2023-01-19T18:11:15.553Z,86.69
2023-01-19T18:13:43.991Z,87.12
2023-01-19T18:16:12.841Z,87.46
2023-01-19T18:18:40.544Z,87.62
2023-01-19T18:21:09.505Z,87.82
2023-01-19T18:23:36.550Z,87.86
2023-01-19T18:26:08.846Z,88.26
2023-01-19T18:28:35.697Z,88.20
2023-01-19T18:31:03.182Z,88.22
2023-01-19T18:33:31.408Z,88.22
2023-01-19T18:35:57.986Z,88.20
2023-01-19T18:38:24.536Z,88.05
2023-01-19T18:41:01.285Z,88.02
2023-01-19T18:43:27.787Z,88.17
2023-01-19T18:45:54.319Z,87.91
2023-01-19T18:48:21.111Z,87.93
2023-01-19T18:50:47.912Z,87.84
2023-01-19T18:53:14.388Z,87.62
2023-01-19T18:55:40.973Z,87.41
2023-01-19T18:58:08.819Z,87.76
2023-01-19T19:00:35.419Z,87.22
2023-01-19T19:03:01.975Z,87.32
2023-01-19T19:05:28.580Z,86.97
2023-01-19T19:07:55.116Z,87.45
2023-01-19T19:10:21.754Z,86.49
2023-01-19T19:12:48.316Z,86.85
2023-01-19T19:15:14.847Z,86.63
2023-01-19T19:17:41.305Z,86.60
2023-01-19T19:20:08.536Z,86.95
2023-01-19T19:22:35.096Z,86.40
2023-01-19T19:25:01.640Z,86.36
2023-01-19T19:27:28.188Z,86.60
2023-01-19T19:29:54.858Z,86.39
2023-01-19T19:32:21.540Z,86.33
2023-01-19T19:34:52.752Z,85.97
2023-01-19T19:37:22.551Z,86.27
2023-01-19T19:39:49.097Z,86.34
2023-01-19T19:42:15.606Z,86.00
2023-01-19T19:44:42.162Z,86.40
2023-01-19T19:47:08.715Z,86.25
2023-01-19T19:49:35.835Z,86.50
2023-01-19T19:52:02.405Z,86.43
2023-01-19T19:54:29.038Z,86.38
2023-01-19T19:56:55.730Z,86.41
2023-01-19T19:59:22.280Z,85.88
2023-01-19T20:01:49.945Z,85.80
2023-01-19T20:04:20.037Z,85.91
2023-01-19T20:06:48.304Z,85.93
2023-01-19T20:09:16.207Z,86.11
2023-01-19T20:11:44.336Z,85.90
2023-01-19T20:14:12.133Z,85.93
2023-01-19T20:16:39.132Z,85.63
2023-01-19T20:19:06.317Z,85.52
2023-01-19T20:21:35.981Z,85.23
2023-01-19T20:24:08.578Z,84.74
2023-01-19T20:26:37.049Z,84.77
2023-01-19T20:29:06.885Z,85.17
2023-01-19T20:31:36.250Z,84.83
2023-01-19T20:34:05.595Z,84.71
2023-01-19T20:36:32.555Z,84.53
2023-01-19T20:38:59.527Z,84.86
2023-01-19T20:41:27.203Z,84.92
2023-01-19T20:43:55.016Z,84.89
2023-01-19T20:46:21.572Z,84.83
2023-01-19T20:48:52.946Z,84.53
2023-01-19T20:51:20.392Z,83.97
2023-01-19T20:53:47.963Z,83.96
2023-01-19T20:56:15.080Z,84.42
2023-01-19T20:58:42.275Z,84.18
2023-01-19T21:01:13.238Z,84.33
2023-01-19T21:03:40.072Z,84.06
2023-01-19T21:06:06.942Z,83.93
2023-01-19T21:08:33.559Z,83.80
2023-01-19T21:11:00.234Z,84.05
2023-01-19T21:13:26.898Z,83.57
2023-01-19T21:15:53.542Z,83.96
2023-01-19T21:18:20.091Z,84.04
2023-01-19T21:20:49.571Z,84.19
2023-01-19T21:23:16.100Z,83.87
2023-01-19T21:25:53.567Z,84.04
2023-01-19T21:28:20.327Z,83.56
2023-01-19T21:30:46.992Z,83.58
2023-01-19T21:33:13.773Z,83.99
2023-01-19T21:35:40.395Z,83.49
2023-01-19T21:38:06.994Z,83.80
2023-01-19T21:40:33.552Z,83.84
2023-01-19T21:43:00.216Z,83.71
2023-01-19T21:45:26.813Z,83.97
2023-01-19T21:47:53.348Z,84.01
2023-01-19T21:50:19.829Z,83.82
2023-01-19T21:52:46.405Z,83.75
2023-01-19T21:55:13.087Z,83.64
2023-01-19T21:57:39.675Z,83.59
2023-01-19T22:00:10.267Z,83.53
2023-01-19T22:02:39.090Z,83.16
2023-01-19T22:05:06.623Z,83.38
2023-01-19T22:07:33.202Z,83.57
2023-01-19T22:09:59.761Z,83.17
2023-01-19T22:12:26.383Z,83.36
2023-01-19T22:14:53.207Z,83.24
2023-01-19T22:17:19.725Z,83.38
2023-01-19T22:19:46.292Z,83.01
2023-01-19T22:22:12.813Z,83.21
2023-01-19T22:24:39.523Z,82.99
2023-01-19T22:27:06.151Z,82.59
2023-01-19T22:29:32.691Z,82.99
2023-01-19T22:31:59.226Z,82.44
2023-01-19T22:34:25.781Z,82.65
2023-01-19T22:36:52.302Z,83.06
2023-01-19T22:39:18.822Z,82.71
2023-01-19T22:41:46.739Z,82.92
2023-01-19T22:44:15.795Z,82.25
2023-01-19T22:46:42.299Z,82.30
2023-01-19T22:49:10.983Z,82.62
2023-01-19T22:51:37.553Z,82.26
2023-01-19T22:54:04.577Z,82.63
2023-01-19T22:56:33.150Z,82.77
2023-01-19T22:59:00.108Z,82.74
2023-01-19T23:01:33.655Z,82.78
2023-01-19T23:04:01.726Z,82.49
2023-01-19T23:06:30.517Z,82.63
2023-01-19T23:09:02.644Z,82.51
2023-01-19T23:11:37.337Z,82.51
2023-01-19T23:14:05.079Z,82.67
2023-01-19T23:16:31.591Z,82.65
2023-01-19T23:18:58.537Z,82.48
2023-01-19T23:21:27.677Z,82.44
2023-01-19T23:23:55.662Z,82.60
2023-01-19T23:26:23.517Z,82.32
2023-01-19T23:29:02.495Z,82.25
2023-01-19T23:31:31.189Z,82.28
2023-01-19T23:34:00.183Z,82.26
2023-01-19T23:36:28.143Z,82.14
2023-01-19T23:38:59.884Z,82.02
2023-01-19T23:41:28.866Z,81.87
2023-01-19T23:43:55.361Z,82.19
2023-01-19T23:46:21.932Z,81.71
2023-01-19T23:48:48.841Z,81.47
2023-01-19T23:51:21.060Z,81.41
2023-01-19T23:53:48.031Z,81.69
2023-01-19T23:56:26.201Z,81.55
2023-01-19T23:58:54.847Z,81.50
